sensor_id;sensor_type;location;lat;lon;timestamp;pressure;altitude;pressure_sealevel;temperature;humidity
79705;BME280;69940;53.120;8.764;2023-08-06T00:00:28;100800.00;;;16.42;81.49
79705;BME280;69940;53.120;8.764;2023-08-06T00:02:58;100800.00;;;16.41;81.71
79705;BME280;69940;53.120;8.764;2023-08-06T00:05:28;100800.00;;;16.40;81.79
79705;BME280;69940;53.120;8.764;2023-08-06T00:07:58;100802.00;;;16.39;81.81
79705;BME280;69940;53.120;8.764;2023-08-06T00:10:28;100802.00;;;16.39;81.75
79705;BME280;69940;53.120;8.764;2023-08-06T00:12:58;100802.00;;;16.39;81.80
79705;BME280;69940;53.120;8.764;2023-08-06T00:15:28;100802.00;;;16.39;81.88
79705;BME280;69940;53.120;8.764;2023-08-06T00:17:58;100802.00;;;16.39;82.04
79705;BME280;69940;53.120;8.764;2023-08-06T00:20:28;100802.00;;;16.39;81.99
79705;BME280;69940;53.120;8.764;2023-08-06T00:22:58;100801.00;;;16.38;81.93
79705;BME280;69940;53.120;8.764;2023-08-06T00:25:28;100800.00;;;16.38;82.05
79705;BME280;69940;53.120;8.764;2023-08-06T00:27:58;100799.00;;;16.38;82.12
79705;BME280;69940;53.120;8.764;2023-08-06T00:30:28;100799.00;;;16.38;82.17
79705;BME280;69940;53.120;8.764;2023-08-06T00:32:58;100798.00;;;16.39;82.07
79705;BME280;69940;53.120;8.764;2023-08-06T00:35:29;100798.00;;;16.40;81.99
79705;BME280;69940;53.120;8.764;2023-08-06T00:37:58;100799.00;;;16.41;81.86
79705;BME280;69940;53.120;8.764;2023-08-06T00:40:31;100798.00;;;16.41;81.90
79705;BME280;69940;53.120;8.764;2023-08-06T00:42:58;100797.00;;;16.42;81.99
79705;BME280;69940;53.120;8.764;2023-08-06T00:45:29;100796.00;;;16.42;82.11
79705;BME280;69940;53.120;8.764;2023-08-06T00:47:58;100794.00;;;16.43;82.00
79705;BME280;69940;53.120;8.764;2023-08-06T00:50:28;100793.00;;;16.43;81.91
79705;BME280;69940;53.120;8.764;2023-08-06T00:52:59;100792.00;;;16.43;81.92
79705;BME280;69940;53.120;8.764;2023-08-06T00:55:28;100789.00;;;16.44;81.97
79705;BME280;69940;53.120;8.764;2023-08-06T00:57:58;100786.00;;;16.44;81.94
79705;BME280;69940;53.120;8.764;2023-08-06T01:00:28;100783.00;;;16.45;81.92
79705;BME280;69940;53.120;8.764;2023-08-06T01:02:58;100781.00;;;16.45;81.91
79705;BME280;69940;53.120;8.764;2023-08-06T01:05:29;100778.00;;;16.46;81.85
79705;BME280;69940;53.120;8.764;2023-08-06T01:08:19;100776.00;;;16.46;81.66
79705;BME280;69940;53.120;8.764;2023-08-06T01:10:54;100773.00;;;16.47;81.67
79705;BME280;69940;53.120;8.764;2023-08-06T01:13:13;100771.00;;;16.46;81.76
79705;BME280;69940;53.120;8.764;2023-08-06T01:15:33;100767.00;;;16.46;81.83
79705;BME280;69940;53.120;8.764;2023-08-06T01:17:59;100761.00;;;16.45;81.84
79705;BME280;69940;53.120;8.764;2023-08-06T01:20:29;100756.00;;;16.45;81.95
79705;BME280;69940;53.120;8.764;2023-08-06T01:22:58;100753.00;;;16.43;81.91
79705;BME280;69940;53.120;8.764;2023-08-06T01:25:39;100750.00;;;16.42;82.01
79705;BME280;69940;53.120;8.764;2023-08-06T01:28:11;100749.00;;;16.41;81.98
79705;BME280;69940;53.120;8.764;2023-08-06T01:30:33;100746.00;;;16.40;82.12
79705;BME280;69940;53.120;8.764;2023-08-06T01:33:00;100745.00;;;16.39;82.14
79705;BME280;69940;53.120;8.764;2023-08-06T01:35:29;100742.00;;;16.38;82.09
79705;BME280;69940;53.120;8.764;2023-08-06T01:37:59;100740.00;;;16.37;82.16
79705;BME280;69940;53.120;8.764;2023-08-06T01:40:30;100738.00;;;16.36;82.36
79705;BME280;69940;53.120;8.764;2023-08-06T01:42:58;100736.00;;;16.36;82.39
79705;BME280;69940;53.120;8.764;2023-08-06T01:45:28;100735.00;;;16.35;82.39
79705;BME280;69940;53.120;8.764;2023-08-06T01:47:58;100735.00;;;16.34;82.51
79705;BME280;69940;53.120;8.764;2023-08-06T01:50:28;100735.00;;;16.33;82.49
79705;BME280;69940;53.120;8.764;2023-08-06T01:52:58;100735.00;;;16.31;82.68
79705;BME280;69940;53.120;8.764;2023-08-06T01:55:29;100735.00;;;16.29;82.84
79705;BME280;69940;53.120;8.764;2023-08-06T01:57:58;100735.00;;;16.28;82.90
79705;BME280;69940;53.120;8.764;2023-08-06T02:00:29;100733.00;;;16.27;82.98
79705;BME280;69940;53.120;8.764;2023-08-06T02:02:58;100730.00;;;16.26;83.02
79705;BME280;69940;53.120;8.764;2023-08-06T02:05:28;100729.00;;;16.26;83.13
79705;BME280;69940;53.120;8.764;2023-08-06T02:07:58;100726.00;;;16.26;83.13
79705;BME280;69940;53.120;8.764;2023-08-06T02:10:28;100722.00;;;16.26;83.10
79705;BME280;69940;53.120;8.764;2023-08-06T02:12:58;100721.00;;;16.26;83.10
79705;BME280;69940;53.120;8.764;2023-08-06T02:15:28;100720.00;;;16.26;83.04
79705;BME280;69940;53.120;8.764;2023-08-06T02:17:58;100719.00;;;16.25;82.95
79705;BME280;69940;53.120;8.764;2023-08-06T02:20:28;100719.00;;;16.25;82.91
79705;BME280;69940;53.120;8.764;2023-08-06T02:22:59;100718.00;;;16.24;82.99
79705;BME280;69940;53.120;8.764;2023-08-06T02:25:28;100717.00;;;16.23;83.19
79705;BME280;69940;53.120;8.764;2023-08-06T02:27:58;100716.00;;;16.22;83.17
79705;BME280;69940;53.120;8.764;2023-08-06T02:30:28;100714.00;;;16.22;83.20
79705;BME280;69940;53.120;8.764;2023-08-06T02:32:58;100711.00;;;16.22;83.28
79705;BME280;69940;53.120;8.764;2023-08-06T02:35:28;100710.00;;;16.21;83.26
79705;BME280;69940;53.120;8.764;2023-08-06T02:37:58;100709.00;;;16.21;83.24
79705;BME280;69940;53.120;8.764;2023-08-06T02:40:28;100708.00;;;16.22;83.26
79705;BME280;69940;53.120;8.764;2023-08-06T02:42:58;100706.00;;;16.22;83.18
79705;BME280;69940;53.120;8.764;2023-08-06T02:45:29;100705.00;;;16.22;83.22
79705;BME280;69940;53.120;8.764;2023-08-06T02:47:58;100703.00;;;16.23;83.08
79705;BME280;69940;53.120;8.764;2023-08-06T02:50:28;100701.00;;;16.23;83.01
79705;BME280;69940;53.120;8.764;2023-08-06T02:52:58;100701.00;;;16.24;82.90
79705;BME280;69940;53.120;8.764;2023-08-06T02:55:28;100701.00;;;16.24;83.09
79705;BME280;69940;53.120;8.764;2023-08-06T02:57:58;100700.00;;;16.23;83.10
79705;BME280;69940;53.120;8.764;2023-08-06T03:00:28;100696.00;;;16.23;83.07
79705;BME280;69940;53.120;8.764;2023-08-06T03:02:58;100693.00;;;16.22;83.08
79705;BME280;69940;53.120;8.764;2023-08-06T03:05:28;100689.00;;;16.21;83.15
79705;BME280;69940;53.120;8.764;2023-08-06T03:07:58;100685.00;;;16.20;83.18
79705;BME280;69940;53.120;8.764;2023-08-06T03:10:28;100682.00;;;16.19;83.21
79705;BME280;69940;53.120;8.764;2023-08-06T03:12:58;100679.00;;;16.18;83.25
79705;BME280;69940;53.120;8.764;2023-08-06T03:15:28;100677.00;;;16.16;83.27
79705;BME280;69940;53.120;8.764;2023-08-06T03:17:58;100675.00;;;16.14;83.21
79705;BME280;69940;53.120;8.764;2023-08-06T03:20:28;100673.00;;;16.12;83.30
79705;BME280;69940;53.120;8.764;2023-08-06T03:22:58;100673.00;;;16.10;83.34
79705;BME280;69940;53.120;8.764;2023-08-06T03:25:28;100671.00;;;16.08;83.36
79705;BME280;69940;53.120;8.764;2023-08-06T03:27:58;100669.00;;;16.05;83.22
79705;BME280;69940;53.120;8.764;2023-08-06T03:30:28;100667.00;;;16.01;83.30
79705;BME280;69940;53.120;8.764;2023-08-06T03:32:58;100664.00;;;15.99;83.23
79705;BME280;69940;53.120;8.764;2023-08-06T03:35:28;100661.00;;;15.97;83.39
79705;BME280;69940;53.120;8.764;2023-08-06T03:37:58;100657.00;;;15.95;83.27
79705;BME280;69940;53.120;8.764;2023-08-06T03:40:28;100655.00;;;15.94;83.29
79705;BME280;69940;53.120;8.764;2023-08-06T03:42:58;100653.00;;;15.93;83.43
79705;BME280;69940;53.120;8.764;2023-08-06T03:45:28;100651.00;;;15.94;83.46
79705;BME280;69940;53.120;8.764;2023-08-06T03:47:58;100647.00;;;15.95;83.42
79705;BME280;69940;53.120;8.764;2023-08-06T03:50:28;100642.00;;;15.96;83.30
79705;BME280;69940;53.120;8.764;2023-08-06T03:52:58;100638.00;;;15.97;83.36
79705;BME280;69940;53.120;8.764;2023-08-06T03:55:28;100634.00;;;15.98;83.47
79705;BME280;69940;53.120;8.764;2023-08-06T03:57:58;100630.00;;;15.99;83.49
79705;BME280;69940;53.120;8.764;2023-08-06T04:00:28;100627.00;;;16.00;83.57
79705;BME280;69940;53.120;8.764;2023-08-06T04:02:58;100625.00;;;16.01;83.61
79705;BME280;69940;53.120;8.764;2023-08-06T04:05:30;100624.00;;;16.02;83.56
79705;BME280;69940;53.120;8.764;2023-08-06T04:07:58;100623.00;;;16.03;83.54
79705;BME280;69940;53.120;8.764;2023-08-06T04:10:28;100623.00;;;16.04;83.56
79705;BME280;69940;53.120;8.764;2023-08-06T04:12:58;100623.00;;;16.04;83.64
79705;BME280;69940;53.120;8.764;2023-08-06T04:15:28;100623.00;;;16.05;83.66
79705;BME280;69940;53.120;8.764;2023-08-06T04:17:58;100624.00;;;16.06;83.55
79705;BME280;69940;53.120;8.764;2023-08-06T04:20:28;100625.00;;;16.07;83.68
79705;BME280;69940;53.120;8.764;2023-08-06T04:22:58;100626.00;;;16.08;83.65
79705;BME280;69940;53.120;8.764;2023-08-06T04:25:28;100627.00;;;16.08;83.70
79705;BME280;69940;53.120;8.764;2023-08-06T04:27:58;100627.00;;;16.09;83.68
79705;BME280;69940;53.120;8.764;2023-08-06T04:30:28;100627.00;;;16.10;83.50
79705;BME280;69940;53.120;8.764;2023-08-06T04:33:01;100626.00;;;16.10;83.57
79705;BME280;69940;53.120;8.764;2023-08-06T04:35:28;100625.00;;;16.11;83.50
79705;BME280;69940;53.120;8.764;2023-08-06T04:37:58;100624.00;;;16.11;83.43
79705;BME280;69940;53.120;8.764;2023-08-06T04:40:28;100623.00;;;16.12;83.36
79705;BME280;69940;53.120;8.764;2023-08-06T04:42:58;100625.00;;;16.14;83.29
79705;BME280;69940;53.120;8.764;2023-08-06T04:45:28;100626.00;;;16.14;83.26
79705;BME280;69940;53.120;8.764;2023-08-06T04:47:58;100629.00;;;16.14;83.49
79705;BME280;69940;53.120;8.764;2023-08-06T04:50:28;100630.00;;;16.13;83.52
79705;BME280;69940;53.120;8.764;2023-08-06T04:52:58;100631.00;;;16.13;83.68
79705;BME280;69940;53.120;8.764;2023-08-06T04:55:28;100630.00;;;16.13;83.57
79705;BME280;69940;53.120;8.764;2023-08-06T04:57:58;100629.00;;;16.13;83.73
79705;BME280;69940;53.120;8.764;2023-08-06T05:00:28;100628.00;;;16.14;83.61
79705;BME280;69940;53.120;8.764;2023-08-06T05:03:01;100626.00;;;16.15;83.51
79705;BME280;69940;53.120;8.764;2023-08-06T05:05:29;100625.00;;;16.16;83.49
79705;BME280;69940;53.120;8.764;2023-08-06T05:07:58;100624.00;;;16.16;83.52
79705;BME280;69940;53.120;8.764;2023-08-06T05:10:28;100625.00;;;16.17;83.47
79705;BME280;69940;53.120;8.764;2023-08-06T05:12:58;100625.00;;;16.18;83.58
79705;BME280;69940;53.120;8.764;2023-08-06T05:15:28;100626.00;;;16.19;83.69
79705;BME280;69940;53.120;8.764;2023-08-06T05:17:58;100628.00;;;16.21;83.53
79705;BME280;69940;53.120;8.764;2023-08-06T05:20:28;100630.00;;;16.23;83.53
79705;BME280;69940;53.120;8.764;2023-08-06T05:22:58;100631.00;;;16.24;83.56
79705;BME280;69940;53.120;8.764;2023-08-06T05:25:28;100631.00;;;16.25;83.56
79705;BME280;69940;53.120;8.764;2023-08-06T05:27:58;100632.00;;;16.26;83.64
79705;BME280;69940;53.120;8.764;2023-08-06T05:30:28;100632.00;;;16.27;83.64
79705;BME280;69940;53.120;8.764;2023-08-06T05:32:58;100632.00;;;16.28;83.47
79705;BME280;69940;53.120;8.764;2023-08-06T05:35:28;100634.00;;;16.29;83.54
79705;BME280;69940;53.120;8.764;2023-08-06T05:37:58;100633.00;;;16.30;83.71
79705;BME280;69940;53.120;8.764;2023-08-06T05:40:28;100633.00;;;16.32;83.64
79705;BME280;69940;53.120;8.764;2023-08-06T05:42:58;100634.00;;;16.35;83.38
79705;BME280;69940;53.120;8.764;2023-08-06T05:45:28;100635.00;;;16.39;83.18
79705;BME280;69940;53.120;8.764;2023-08-06T05:47:59;100636.00;;;16.42;83.11
79705;BME280;69940;53.120;8.764;2023-08-06T05:50:28;100636.00;;;16.44;83.04
79705;BME280;69940;53.120;8.764;2023-08-06T05:52:58;100637.00;;;16.46;83.15
79705;BME280;69940;53.120;8.764;2023-08-06T05:55:28;100638.00;;;16.48;83.06
79705;BME280;69940;53.120;8.764;2023-08-06T05:57:58;100637.00;;;16.51;83.02
79705;BME280;69940;53.120;8.764;2023-08-06T06:00:28;100638.00;;;16.54;83.13
79705;BME280;69940;53.120;8.764;2023-08-06T06:02:58;100639.00;;;16.57;83.05
79705;BME280;69940;53.120;8.764;2023-08-06T06:05:28;100639.00;;;16.59;83.02
79705;BME280;69940;53.120;8.764;2023-08-06T06:07:58;100638.00;;;16.61;83.01
79705;BME280;69940;53.120;8.764;2023-08-06T06:10:28;100636.00;;;16.64;82.78
79705;BME280;69940;53.120;8.764;2023-08-06T06:12:58;100633.00;;;16.67;82.42
79705;BME280;69940;53.120;8.764;2023-08-06T06:15:28;100632.00;;;16.70;82.34
79705;BME280;69940;53.120;8.764;2023-08-06T06:17:59;100630.00;;;16.74;82.36
79705;BME280;69940;53.120;8.764;2023-08-06T06:20:28;100630.00;;;16.76;82.40
79705;BME280;69940;53.120;8.764;2023-08-06T06:22:58;100631.00;;;16.78;82.44
79705;BME280;69940;53.120;8.764;2023-08-06T06:25:28;100632.00;;;16.79;82.42
79705;BME280;69940;53.120;8.764;2023-08-06T06:27:59;100631.00;;;16.80;82.34
79705;BME280;69940;53.120;8.764;2023-08-06T06:30:28;100631.00;;;16.81;82.34
79705;BME280;69940;53.120;8.764;2023-08-06T06:32:58;100631.00;;;16.82;82.36
79705;BME280;69940;53.120;8.764;2023-08-06T06:35:28;100631.00;;;16.83;82.28
79705;BME280;69940;53.120;8.764;2023-08-06T06:37:58;100631.00;;;16.84;82.54
79705;BME280;69940;53.120;8.764;2023-08-06T06:40:28;100632.00;;;16.85;82.66
79705;BME280;69940;53.120;8.764;2023-08-06T06:42:58;100634.00;;;16.86;82.49
79705;BME280;69940;53.120;8.764;2023-08-06T06:45:28;100636.00;;;16.88;82.59
79705;BME280;69940;53.120;8.764;2023-08-06T06:47:58;100637.00;;;16.90;82.55
79705;BME280;69940;53.120;8.764;2023-08-06T06:50:28;100638.00;;;16.93;82.26
79705;BME280;69940;53.120;8.764;2023-08-06T06:52:58;100639.00;;;16.96;82.10
79705;BME280;69940;53.120;8.764;2023-08-06T06:55:28;100641.00;;;17.00;82.16
79705;BME280;69940;53.120;8.764;2023-08-06T06:57:58;100642.00;;;17.02;82.17
79705;BME280;69940;53.120;8.764;2023-08-06T07:00:28;100644.00;;;17.05;82.03
79705;BME280;69940;53.120;8.764;2023-08-06T07:02:58;100645.00;;;17.06;81.89
79705;BME280;69940;53.120;8.764;2023-08-06T07:05:28;100647.00;;;17.07;81.90
79705;BME280;69940;53.120;8.764;2023-08-06T07:07:58;100649.00;;;17.08;82.03
79705;BME280;69940;53.120;8.764;2023-08-06T07:10:28;100650.00;;;17.10;81.77
79705;BME280;69940;53.120;8.764;2023-08-06T07:12:58;100651.00;;;17.11;81.72
79705;BME280;69940;53.120;8.764;2023-08-06T07:15:28;100651.00;;;17.14;81.65
79705;BME280;69940;53.120;8.764;2023-08-06T07:17:58;100651.00;;;17.16;81.77
79705;BME280;69940;53.120;8.764;2023-08-06T07:20:33;100651.00;;;17.20;81.67
79705;BME280;69940;53.120;8.764;2023-08-06T07:22:58;100651.00;;;17.23;81.16
79705;BME280;69940;53.120;8.764;2023-08-06T07:25:28;100652.00;;;17.27;81.18
79705;BME280;69940;53.120;8.764;2023-08-06T07:27:58;100652.00;;;17.30;81.57
79705;BME280;69940;53.120;8.764;2023-08-06T07:30:28;100653.00;;;17.33;81.42
79705;BME280;69940;53.120;8.764;2023-08-06T07:32:58;100652.00;;;17.35;81.25
79705;BME280;69940;53.120;8.764;2023-08-06T07:35:28;100651.00;;;17.36;81.40
79705;BME280;69940;53.120;8.764;2023-08-06T07:37:58;100651.00;;;17.37;81.02
79705;BME280;69940;53.120;8.764;2023-08-06T07:40:28;100651.00;;;17.38;80.66
79705;BME280;69940;53.120;8.764;2023-08-06T07:42:58;100651.00;;;17.40;80.82
79705;BME280;69940;53.120;8.764;2023-08-06T07:45:32;100651.00;;;17.42;80.64
79705;BME280;69940;53.120;8.764;2023-08-06T07:47:58;100650.00;;;17.44;80.38
79705;BME280;69940;53.120;8.764;2023-08-06T07:50:28;100650.00;;;17.46;80.38
79705;BME280;69940;53.120;8.764;2023-08-06T07:52:58;100650.00;;;17.49;80.33
79705;BME280;69940;53.120;8.764;2023-08-06T07:55:28;100650.00;;;17.52;80.11
79705;BME280;69940;53.120;8.764;2023-08-06T07:57:58;100649.00;;;17.56;80.41
79705;BME280;69940;53.120;8.764;2023-08-06T08:00:28;100648.00;;;17.62;80.18
79705;BME280;69940;53.120;8.764;2023-08-06T08:02:58;100648.00;;;17.69;79.77
79705;BME280;69940;53.120;8.764;2023-08-06T08:05:28;100648.00;;;17.76;79.12
79705;BME280;69940;53.120;8.764;2023-08-06T08:07:58;100648.00;;;17.79;78.71
79705;BME280;69940;53.120;8.764;2023-08-06T08:10:28;100647.00;;;17.81;78.87
79705;BME280;69940;53.120;8.764;2023-08-06T08:12:58;100645.00;;;17.81;79.11
79705;BME280;69940;53.120;8.764;2023-08-06T08:15:28;100643.00;;;17.83;79.22
79705;BME280;69940;53.120;8.764;2023-08-06T08:17:59;100641.00;;;17.84;79.61
79705;BME280;69940;53.120;8.764;2023-08-06T08:20:36;100639.00;;;17.86;79.64
79705;BME280;69940;53.120;8.764;2023-08-06T08:22:59;100638.00;;;17.87;79.20
79705;BME280;69940;53.120;8.764;2023-08-06T08:25:28;100636.00;;;17.90;78.87
79705;BME280;69940;53.120;8.764;2023-08-06T08:27:58;100634.00;;;17.93;78.52
79705;BME280;69940;53.120;8.764;2023-08-06T08:30:29;100632.00;;;17.98;78.77
79705;BME280;69940;53.120;8.764;2023-08-06T08:32:58;100629.00;;;18.05;78.60
79705;BME280;69940;53.120;8.764;2023-08-06T08:35:28;100627.00;;;18.12;78.51
79705;BME280;69940;53.120;8.764;2023-08-06T08:37:58;100626.00;;;18.20;78.86
79705;BME280;69940;53.120;8.764;2023-08-06T08:40:31;100624.00;;;18.27;78.59
79705;BME280;69940;53.120;8.764;2023-08-06T08:42:59;100621.00;;;18.31;78.41
79705;BME280;69940;53.120;8.764;2023-08-06T08:45:29;100619.00;;;18.33;78.52
79705;BME280;69940;53.120;8.764;2023-08-06T08:47:58;100616.00;;;18.35;78.79
79705;BME280;69940;53.120;8.764;2023-08-06T08:50:29;100614.00;;;18.35;78.30
79705;BME280;69940;53.120;8.764;2023-08-06T08:52:59;100612.00;;;18.34;78.63
79705;BME280;69940;53.120;8.764;2023-08-06T08:55:28;100610.00;;;18.33;79.30
79705;BME280;69940;53.120;8.764;2023-08-06T08:57:58;100610.00;;;18.32;78.89
79705;BME280;69940;53.120;8.764;2023-08-06T09:00:29;100608.00;;;18.31;79.16
79705;BME280;69940;53.120;8.764;2023-08-06T09:02:58;100608.00;;;18.29;79.66
79705;BME280;69940;53.120;8.764;2023-08-06T09:05:29;100607.00;;;18.28;79.66
79705;BME280;69940;53.120;8.764;2023-08-06T09:08:05;100606.00;;;18.28;79.19
79705;BME280;69940;53.120;8.764;2023-08-06T09:10:28;100605.00;;;18.27;79.32
79705;BME280;69940;53.120;8.764;2023-08-06T09:12:58;100603.00;;;18.28;79.50
79705;BME280;69940;53.120;8.764;2023-08-06T09:15:28;100602.00;;;18.30;78.82
79705;BME280;69940;53.120;8.764;2023-08-06T09:17:58;100601.00;;;18.31;79.03
79705;BME280;69940;53.120;8.764;2023-08-06T09:20:28;100600.00;;;18.32;79.09
79705;BME280;69940;53.120;8.764;2023-08-06T09:23:07;100599.00;;;18.34;79.06
79705;BME280;69940;53.120;8.764;2023-08-06T09:25:31;100601.00;;;18.36;79.13
79705;BME280;69940;53.120;8.764;2023-08-06T09:27:58;100601.00;;;18.37;78.29
79705;BME280;69940;53.120;8.764;2023-08-06T09:30:30;100601.00;;;18.38;78.45
79705;BME280;69940;53.120;8.764;2023-08-06T09:32:58;100600.00;;;18.39;78.77
79705;BME280;69940;53.120;8.764;2023-08-06T09:35:31;100600.00;;;18.40;79.27
79705;BME280;69940;53.120;8.764;2023-08-06T09:38:08;100599.00;;;18.42;79.80
79705;BME280;69940;53.120;8.764;2023-08-06T09:40:29;100598.00;;;18.43;79.94
79705;BME280;69940;53.120;8.764;2023-08-06T09:42:59;100596.00;;;18.44;79.71
79705;BME280;69940;53.120;8.764;2023-08-06T09:45:30;100595.00;;;18.45;79.93
79705;BME280;69940;53.120;8.764;2023-08-06T09:47:59;100594.00;;;18.47;79.85
79705;BME280;69940;53.120;8.764;2023-08-06T09:50:29;100594.00;;;18.47;79.51
79705;BME280;69940;53.120;8.764;2023-08-06T09:53:02;100594.00;;;18.48;78.95
79705;BME280;69940;53.120;8.764;2023-08-06T09:55:28;100593.00;;;18.48;78.47
79705;BME280;69940;53.120;8.764;2023-08-06T09:57:59;100592.00;;;18.47;77.97
79705;BME280;69940;53.120;8.764;2023-08-06T10:00:30;100590.00;;;18.47;78.01
79705;BME280;69940;53.120;8.764;2023-08-06T10:03:00;100589.00;;;18.47;77.75
79705;BME280;69940;53.120;8.764;2023-08-06T10:05:29;100588.00;;;18.48;77.95
79705;BME280;69940;53.120;8.764;2023-08-06T10:07:59;100588.00;;;18.50;78.23
79705;BME280;69940;53.120;8.764;2023-08-06T10:10:29;100587.00;;;18.51;78.54
79705;BME280;69940;53.120;8.764;2023-08-06T10:12:59;100586.00;;;18.53;77.52
79705;BME280;69940;53.120;8.764;2023-08-06T10:15:31;100584.00;;;18.57;77.41
79705;BME280;69940;53.120;8.764;2023-08-06T10:17:59;100584.00;;;18.62;77.59
79705;BME280;69940;53.120;8.764;2023-08-06T10:20:32;100584.00;;;18.70;77.29
79705;BME280;69940;53.120;8.764;2023-08-06T10:23:05;100584.00;;;18.78;76.72
79705;BME280;69940;53.120;8.764;2023-08-06T10:25:32;100583.00;;;18.88;76.45
79705;BME280;69940;53.120;8.764;2023-08-06T10:27:59;100582.00;;;18.98;75.55
79705;BME280;69940;53.120;8.764;2023-08-06T10:30:33;100581.00;;;19.09;75.05
79705;BME280;69940;53.120;8.764;2023-08-06T10:33:03;100580.00;;;19.18;74.87
79705;BME280;69940;53.120;8.764;2023-08-06T10:35:29;100579.00;;;19.28;74.86
79705;BME280;69940;53.120;8.764;2023-08-06T10:38:09;100579.00;;;19.37;75.25
79705;BME280;69940;53.120;8.764;2023-08-06T10:40:32;100579.00;;;19.47;75.16
79705;BME280;69940;53.120;8.764;2023-08-06T10:42:59;100579.00;;;19.56;75.45
79705;BME280;69940;53.120;8.764;2023-08-06T10:45:34;100579.00;;;19.64;75.71
79705;BME280;69940;53.120;8.764;2023-08-06T10:47:58;100575.00;;;19.71;75.26
79705;BME280;69940;53.120;8.764;2023-08-06T10:50:28;100573.00;;;19.77;74.47
79705;BME280;69940;53.120;8.764;2023-08-06T10:53:03;100571.00;;;19.82;74.78
79705;BME280;69940;53.120;8.764;2023-08-06T10:55:29;100568.00;;;19.86;74.22
79705;BME280;69940;53.120;8.764;2023-08-06T10:57:58;100566.00;;;19.90;74.79
79705;BME280;69940;53.120;8.764;2023-08-06T11:00:28;100564.00;;;19.94;74.28
79705;BME280;69940;53.120;8.764;2023-08-06T11:02:58;100563.00;;;19.97;73.92
79705;BME280;69940;53.120;8.764;2023-08-06T11:05:29;100562.00;;;19.99;71.69
79705;BME280;69940;53.120;8.764;2023-08-06T11:07:58;100562.00;;;20.02;71.45
79705;BME280;69940;53.120;8.764;2023-08-06T11:10:29;100560.00;;;20.04;71.58
79705;BME280;69940;53.120;8.764;2023-08-06T11:13:02;100559.00;;;20.05;70.63
79705;BME280;69940;53.120;8.764;2023-08-06T11:15:29;100556.00;;;20.07;70.18
79705;BME280;69940;53.120;8.764;2023-08-06T11:17:58;100554.00;;;20.09;70.22
79705;BME280;69940;53.120;8.764;2023-08-06T11:20:28;100552.00;;;20.11;70.54
79705;BME280;69940;53.120;8.764;2023-08-06T11:22:59;100551.00;;;20.14;70.67
79705;BME280;69940;53.120;8.764;2023-08-06T11:25:28;100549.00;;;20.16;69.91
79705;BME280;69940;53.120;8.764;2023-08-06T11:28:00;100548.00;;;20.15;68.71
79705;BME280;69940;53.120;8.764;2023-08-06T11:30:28;100546.00;;;20.14;68.91
79705;BME280;69940;53.120;8.764;2023-08-06T11:32:58;100545.00;;;20.15;69.09
79705;BME280;69940;53.120;8.764;2023-08-06T11:35:28;100545.00;;;20.16;69.49
79705;BME280;69940;53.120;8.764;2023-08-06T11:37:59;100546.00;;;20.18;68.41
79705;BME280;69940;53.120;8.764;2023-08-06T11:40:28;100545.00;;;20.20;67.92
79705;BME280;69940;53.120;8.764;2023-08-06T11:42:58;100544.00;;;20.25;68.52
79705;BME280;69940;53.120;8.764;2023-08-06T11:45:28;100541.00;;;20.31;67.45
79705;BME280;69940;53.120;8.764;2023-08-06T11:47:59;100536.00;;;20.40;67.21
79705;BME280;69940;53.120;8.764;2023-08-06T11:50:29;100533.00;;;20.51;67.97
79705;BME280;69940;53.120;8.764;2023-08-06T11:53:00;100530.00;;;20.62;66.62
79705;BME280;69940;53.120;8.764;2023-08-06T11:55:29;100528.00;;;20.73;66.59
79705;BME280;69940;53.120;8.764;2023-08-06T11:57:59;100526.00;;;20.83;66.60
79705;BME280;69940;53.120;8.764;2023-08-06T12:00:28;100525.00;;;20.92;66.89
79705;BME280;69940;53.120;8.764;2023-08-06T12:02:58;100524.00;;;20.99;66.61
79705;BME280;69940;53.120;8.764;2023-08-06T12:05:32;100523.00;;;21.03;66.40
79705;BME280;69940;53.120;8.764;2023-08-06T12:07:59;100521.00;;;21.08;65.97
79705;BME280;69940;53.120;8.764;2023-08-06T12:10:30;100519.00;;;21.13;66.00
79705;BME280;69940;53.120;8.764;2023-08-06T12:12:58;100518.00;;;21.17;66.08
79705;BME280;69940;53.120;8.764;2023-08-06T12:15:28;100518.00;;;21.18;66.12
79705;BME280;69940;53.120;8.764;2023-08-06T12:17:58;100517.00;;;21.17;65.90
79705;BME280;69940;53.120;8.764;2023-08-06T12:20:29;100515.00;;;21.16;65.44
79705;BME280;69940;53.120;8.764;2023-08-06T12:22:58;100513.00;;;21.15;65.41
79705;BME280;69940;53.120;8.764;2023-08-06T12:25:29;100510.00;;;21.14;65.48
79705;BME280;69940;53.120;8.764;2023-08-06T12:27:58;100508.00;;;21.15;65.81
79705;BME280;69940;53.120;8.764;2023-08-06T12:30:28;100506.00;;;21.16;65.76
79705;BME280;69940;53.120;8.764;2023-08-06T12:32:58;100506.00;;;21.18;66.04
79705;BME280;69940;53.120;8.764;2023-08-06T12:35:28;100504.00;;;21.19;65.24
79705;BME280;69940;53.120;8.764;2023-08-06T12:37:58;100504.00;;;21.19;65.92
79705;BME280;69940;53.120;8.764;2023-08-06T12:40:28;100502.00;;;21.19;66.38
79705;BME280;69940;53.120;8.764;2023-08-06T12:43:00;100502.00;;;21.20;66.43
79705;BME280;69940;53.120;8.764;2023-08-06T12:45:28;100502.00;;;21.21;66.86
79705;BME280;69940;53.120;8.764;2023-08-06T12:47:58;100503.00;;;21.20;67.57
79705;BME280;69940;53.120;8.764;2023-08-06T12:50:28;100503.00;;;21.19;67.78
79705;BME280;69940;53.120;8.764;2023-08-06T12:52:58;100503.00;;;21.16;68.09
79705;BME280;69940;53.120;8.764;2023-08-06T12:55:28;100503.00;;;21.12;68.24
79705;BME280;69940;53.120;8.764;2023-08-06T12:57:58;100503.00;;;21.07;68.52
79705;BME280;69940;53.120;8.764;2023-08-06T13:00:28;100502.00;;;21.04;68.84
79705;BME280;69940;53.120;8.764;2023-08-06T13:02:58;100502.00;;;21.02;68.91